sensor_id;sensor_type;location;lat;lon;timestamp;P1;durP1;ratioP1;P2;durP2;ratioP2
42978;SDS011;28616;44.746;19.678;2023-06-26T00:01:17;9.38;;;6.50;;
42978;SDS011;28616;44.746;19.678;2023-06-26T00:03:46;8.40;;;6.05;;
42978;SDS011;28616;44.746;19.678;2023-06-26T00:06:15;12.30;;;6.55;;
42978;SDS011;28616;44.746;19.678;2023-06-26T00:08:41;10.40;;;6.57;;
42978;SDS011;28616;44.746;19.678;2023-06-26T00:11:07;12.07;;;6.78;;
42978;SDS011;28616;44.746;19.678;2023-06-26T00:13:33;12.05;;;7.47;;
42978;SDS011;28616;44.746;19.678;2023-06-26T00:15:59;13.55;;;6.97;;
42978;SDS011;28616;44.746;19.678;2023-06-26T00:18:28;11.13;;;6.32;;
42978;SDS011;28616;44.746;19.678;2023-06-26T00:20:54;12.95;;;7.32;;
42978;SDS011;28616;44.746;19.678;2023-06-26T00:23:20;11.88;;;6.68;;
42978;SDS011;28616;44.746;19.678;2023-06-26T00:25:45;9.40;;;6.53;;
42978;SDS011;28616;44.746;19.678;2023-06-26T00:28:11;13.13;;;6.10;;
42978;SDS011;28616;44.746;19.678;2023-06-26T00:30:37;10.93;;;6.85;;
42978;SDS011;28616;44.746;19.678;2023-06-26T00:33:03;10.82;;;6.53;;
42978;SDS011;28616;44.746;19.678;2023-06-26T00:35:29;12.77;;;7.47;;
42978;SDS011;28616;44.746;19.678;2023-06-26T00:37:54;10.48;;;6.57;;
42978;SDS011;28616;44.746;19.678;2023-06-26T00:40:20;9.63;;;6.63;;
42978;SDS011;28616;44.746;19.678;2023-06-26T00:42:46;11.75;;;7.13;;
42978;SDS011;28616;44.746;19.678;2023-06-26T00:45:12;10.50;;;6.78;;
42978;SDS011;28616;44.746;19.678;2023-06-26T00:47:37;11.15;;;6.72;;
42978;SDS011;28616;44.746;19.678;2023-06-26T00:50:04;14.38;;;6.47;;
42978;SDS011;28616;44.746;19.678;2023-06-26T00:52:30;10.43;;;7.30;;
42978;SDS011;28616;44.746;19.678;2023-06-26T00:54:57;16.33;;;7.28;;
42978;SDS011;28616;44.746;19.678;2023-06-26T00:57:23;11.80;;;6.75;;
42978;SDS011;28616;44.746;19.678;2023-06-26T00:59:49;12.10;;;7.70;;
42978;SDS011;28616;44.746;19.678;2023-06-26T01:02:15;10.82;;;7.15;;
42978;SDS011;28616;44.746;19.678;2023-06-26T01:04:50;12.55;;;6.70;;
42978;SDS011;28616;44.746;19.678;2023-06-26T01:07:17;12.07;;;7.00;;
42978;SDS011;28616;44.746;19.678;2023-06-26T01:09:45;10.68;;;6.80;;
42978;SDS011;28616;44.746;19.678;2023-06-26T01:12:12;10.77;;;7.00;;
42978;SDS011;28616;44.746;19.678;2023-06-26T01:14:39;10.05;;;6.70;;
42978;SDS011;28616;44.746;19.678;2023-06-26T01:17:04;10.38;;;7.05;;
42978;SDS011;28616;44.746;19.678;2023-06-26T01:19:32;13.15;;;7.38;;
42978;SDS011;28616;44.746;19.678;2023-06-26T01:22:23;11.90;;;7.18;;
42978;SDS011;28616;44.746;19.678;2023-06-26T01:25:13;11.13;;;7.38;;
42978;SDS011;28616;44.746;19.678;2023-06-26T01:27:46;10.52;;;6.85;;
42978;SDS011;28616;44.746;19.678;2023-06-26T01:30:14;14.10;;;7.47;;
42978;SDS011;28616;44.746;19.678;2023-06-26T01:32:42;10.63;;;7.30;;
42978;SDS011;28616;44.746;19.678;2023-06-26T01:35:10;14.75;;;6.97;;
42978;SDS011;28616;44.746;19.678;2023-06-26T01:37:37;10.73;;;7.90;;
42978;SDS011;28616;44.746;19.678;2023-06-26T01:40:03;11.18;;;7.72;;
42978;SDS011;28616;44.746;19.678;2023-06-26T01:42:34;13.07;;;7.65;;
42978;SDS011;28616;44.746;19.678;2023-06-26T01:45:09;12.13;;;7.47;;
42978;SDS011;28616;44.746;19.678;2023-06-26T01:47:49;14.60;;;7.97;;
42978;SDS011;28616;44.746;19.678;2023-06-26T01:50:18;14.15;;;7.72;;
42978;SDS011;28616;44.746;19.678;2023-06-26T01:58:08;11.93;;;7.30;;
42978;SDS011;28616;44.746;19.678;2023-06-26T02:00:34;12.07;;;7.95;;
42978;SDS011;28616;44.746;19.678;2023-06-26T02:03:01;13.63;;;8.27;;
42978;SDS011;28616;44.746;19.678;2023-06-26T02:05:29;14.45;;;8.45;;
42978;SDS011;28616;44.746;19.678;2023-06-26T02:07:56;15.38;;;8.48;;
42978;SDS011;28616;44.746;19.678;2023-06-26T02:10:21;13.73;;;7.57;;
42978;SDS011;28616;44.746;19.678;2023-06-26T02:12:47;16.52;;;8.45;;
42978;SDS011;28616;44.746;19.678;2023-06-26T02:15:13;19.50;;;8.15;;
42978;SDS011;28616;44.746;19.678;2023-06-26T02:17:39;14.10;;;7.88;;
42978;SDS011;28616;44.746;19.678;2023-06-26T02:20:05;16.35;;;8.63;;
42978;SDS011;28616;44.746;19.678;2023-06-26T02:22:31;13.88;;;8.85;;
42978;SDS011;28616;44.746;19.678;2023-06-26T02:24:57;14.05;;;8.25;;
42978;SDS011;28616;44.746;19.678;2023-06-26T02:27:23;12.88;;;8.13;;
42978;SDS011;28616;44.746;19.678;2023-06-26T02:29:48;15.75;;;8.15;;
42978;SDS011;28616;44.746;19.678;2023-06-26T02:32:14;14.07;;;7.97;;
42978;SDS011;28616;44.746;19.678;2023-06-26T02:34:40;14.70;;;8.88;;
42978;SDS011;28616;44.746;19.678;2023-06-26T02:37:06;15.35;;;8.13;;
42978;SDS011;28616;44.746;19.678;2023-06-26T02:39:32;13.75;;;8.10;;
42978;SDS011;28616;44.746;19.678;2023-06-26T02:41:59;14.07;;;8.75;;
42978;SDS011;28616;44.746;19.678;2023-06-26T02:44:25;12.15;;;8.15;;
42978;SDS011;28616;44.746;19.678;2023-06-26T02:46:51;15.13;;;8.55;;
42978;SDS011;28616;44.746;19.678;2023-06-26T02:49:17;17.85;;;8.98;;
42978;SDS011;28616;44.746;19.678;2023-06-26T02:51:43;17.40;;;9.05;;
42978;SDS011;28616;44.746;19.678;2023-06-26T02:54:09;19.92;;;7.97;;
42978;SDS011;28616;44.746;19.678;2023-06-26T02:56:35;15.48;;;8.68;;
42978;SDS011;28616;44.746;19.678;2023-06-26T02:59:00;14.13;;;9.05;;
42978;SDS011;28616;44.746;19.678;2023-06-26T03:01:26;13.88;;;8.18;;
42978;SDS011;28616;44.746;19.678;2023-06-26T03:03:52;14.10;;;8.65;;
42978;SDS011;28616;44.746;19.678;2023-06-26T03:06:18;15.18;;;8.35;;
42978;SDS011;28616;44.746;19.678;2023-06-26T03:08:43;12.23;;;8.50;;
42978;SDS011;28616;44.746;19.678;2023-06-26T03:11:09;12.95;;;8.43;;
42978;SDS011;28616;44.746;19.678;2023-06-26T03:13:35;12.98;;;7.93;;
42978;SDS011;28616;44.746;19.678;2023-06-26T03:16:02;12.40;;;8.55;;
42978;SDS011;28616;44.746;19.678;2023-06-26T03:18:28;17.10;;;8.35;;
42978;SDS011;28616;44.746;19.678;2023-06-26T03:20:57;14.15;;;8.82;;
42978;SDS011;28616;44.746;19.678;2023-06-26T03:23:23;12.18;;;8.18;;
42978;SDS011;28616;44.746;19.678;2023-06-26T03:25:50;13.95;;;8.90;;
42978;SDS011;28616;44.746;19.678;2023-06-26T03:28:16;15.55;;;9.10;;
42978;SDS011;28616;44.746;19.678;2023-06-26T03:30:42;13.40;;;8.95;;
42978;SDS011;28616;44.746;19.678;2023-06-26T03:33:08;16.75;;;9.20;;
42978;SDS011;28616;44.746;19.678;2023-06-26T03:35:34;13.85;;;8.63;;
42978;SDS011;28616;44.746;19.678;2023-06-26T03:38:00;14.23;;;8.55;;
42978;SDS011;28616;44.746;19.678;2023-06-26T03:40:26;14.65;;;8.88;;
42978;SDS011;28616;44.746;19.678;2023-06-26T03:42:52;15.27;;;9.02;;
42978;SDS011;28616;44.746;19.678;2023-06-26T03:45:18;15.38;;;8.48;;
42978;SDS011;28616;44.746;19.678;2023-06-26T03:47:45;12.80;;;8.98;;
42978;SDS011;28616;44.746;19.678;2023-06-26T03:50:14;11.77;;;8.30;;
42978;SDS011;28616;44.746;19.678;2023-06-26T03:52:43;13.13;;;8.25;;
42978;SDS011;28616;44.746;19.678;2023-06-26T03:55:09;15.23;;;8.85;;
42978;SDS011;28616;44.746;19.678;2023-06-26T03:57:35;14.48;;;8.65;;
42978;SDS011;28616;44.746;19.678;2023-06-26T04:00:01;14.50;;;8.60;;
42978;SDS011;28616;44.746;19.678;2023-06-26T04:04:58;11.98;;;7.65;;
42978;SDS011;28616;44.746;19.678;2023-06-26T04:07:25;12.73;;;8.52;;
42978;SDS011;28616;44.746;19.678;2023-06-26T04:09:51;15.77;;;8.98;;
42978;SDS011;28616;44.746;19.678;2023-06-26T04:12:17;14.30;;;7.78;;
42978;SDS011;28616;44.746;19.678;2023-06-26T04:14:43;11.52;;;8.05;;
42978;SDS011;28616;44.746;19.678;2023-06-26T04:17:08;12.15;;;7.85;;
42978;SDS011;28616;44.746;19.678;2023-06-26T04:19:35;12.55;;;7.93;;
42978;SDS011;28616;44.746;19.678;2023-06-26T04:22:01;13.57;;;8.02;;
42978;SDS011;28616;44.746;19.678;2023-06-26T04:24:27;15.00;;;8.43;;
42978;SDS011;28616;44.746;19.678;2023-06-26T04:26:52;16.80;;;8.18;;
42978;SDS011;28616;44.746;19.678;2023-06-26T04:29:22;11.85;;;8.57;;
42978;SDS011;28616;44.746;19.678;2023-06-26T04:31:50;14.05;;;8.70;;
42978;SDS011;28616;44.746;19.678;2023-06-26T04:34:17;11.65;;;8.13;;
42978;SDS011;28616;44.746;19.678;2023-06-26T04:36:42;18.85;;;8.63;;
42978;SDS011;28616;44.746;19.678;2023-06-26T04:39:13;13.88;;;8.50;;
42978;SDS011;28616;44.746;19.678;2023-06-26T04:41:40;12.38;;;8.68;;
42978;SDS011;28616;44.746;19.678;2023-06-26T04:44:06;16.35;;;7.63;;
42978;SDS011;28616;44.746;19.678;2023-06-26T04:46:32;16.27;;;8.07;;
42978;SDS011;28616;44.746;19.678;2023-06-26T04:48:57;9.85;;;7.40;;
42978;SDS011;28616;44.746;19.678;2023-06-26T04:51:24;14.65;;;8.07;;
42978;SDS011;28616;44.746;19.678;2023-06-26T04:53:52;10.63;;;7.45;;
42978;SDS011;28616;44.746;19.678;2023-06-26T04:56:18;12.52;;;8.02;;
42978;SDS011;28616;44.746;19.678;2023-06-26T04:58:43;14.70;;;7.93;;
42978;SDS011;28616;44.746;19.678;2023-06-26T05:01:09;11.23;;;7.65;;
42978;SDS011;28616;44.746;19.678;2023-06-26T05:03:35;11.43;;;7.47;;
42978;SDS011;28616;44.746;19.678;2023-06-26T05:06:01;10.27;;;7.57;;
42978;SDS011;28616;44.746;19.678;2023-06-26T05:08:27;14.20;;;8.00;;
42978;SDS011;28616;44.746;19.678;2023-06-26T05:10:53;16.05;;;8.68;;
42978;SDS011;28616;44.746;19.678;2023-06-26T05:13:22;11.32;;;7.63;;
42978;SDS011;28616;44.746;19.678;2023-06-26T05:15:49;13.00;;;7.70;;
42978;SDS011;28616;44.746;19.678;2023-06-26T05:18:15;14.70;;;7.38;;
42978;SDS011;28616;44.746;19.678;2023-06-26T05:20:41;11.25;;;7.10;;
42978;SDS011;28616;44.746;19.678;2023-06-26T05:23:07;13.20;;;7.93;;
42978;SDS011;28616;44.746;19.678;2023-06-26T05:25:33;12.18;;;7.72;;
42978;SDS011;28616;44.746;19.678;2023-06-26T05:27:59;15.35;;;7.55;;
42978;SDS011;28616;44.746;19.678;2023-06-26T05:30:26;10.02;;;6.82;;
42978;SDS011;28616;44.746;19.678;2023-06-26T05:32:55;10.88;;;6.32;;
42978;SDS011;28616;44.746;19.678;2023-06-26T05:35:22;11.20;;;7.32;;
42978;SDS011;28616;44.746;19.678;2023-06-26T05:37:49;13.68;;;7.20;;
42978;SDS011;28616;44.746;19.678;2023-06-26T05:40:16;12.40;;;7.75;;
42978;SDS011;28616;44.746;19.678;2023-06-26T05:42:43;12.18;;;7.00;;
42978;SDS011;28616;44.746;19.678;2023-06-26T05:45:09;14.20;;;7.10;;
42978;SDS011;28616;44.746;19.678;2023-06-26T05:47:35;14.80;;;7.13;;
42978;SDS011;28616;44.746;19.678;2023-06-26T05:50:02;10.70;;;7.18;;
42978;SDS011;28616;44.746;19.678;2023-06-26T05:52:28;9.63;;;6.78;;
42978;SDS011;28616;44.746;19.678;2023-06-26T05:54:55;12.23;;;7.10;;
42978;SDS011;28616;44.746;19.678;2023-06-26T05:57:25;10.55;;;6.82;;
42978;SDS011;28616;44.746;19.678;2023-06-26T05:59:53;9.80;;;6.90;;
42978;SDS011;28616;44.746;19.678;2023-06-26T06:02:19;10.05;;;7.10;;
42978;SDS011;28616;44.746;19.678;2023-06-26T06:04:45;11.02;;;6.47;;
42978;SDS011;28616;44.746;19.678;2023-06-26T06:07:11;8.82;;;6.50;;
42978;SDS011;28616;44.746;19.678;2023-06-26T06:09:37;12.15;;;7.22;;
42978;SDS011;28616;44.746;19.678;2023-06-26T06:12:04;10.50;;;6.85;;
42978;SDS011;28616;44.746;19.678;2023-06-26T06:14:31;18.40;;;7.15;;
42978;SDS011;28616;44.746;19.678;2023-06-26T06:16:57;10.13;;;6.97;;
42978;SDS011;28616;44.746;19.678;2023-06-26T06:19:23;19.17;;;7.18;;
42978;SDS011;28616;44.746;19.678;2023-06-26T06:21:49;12.27;;;7.13;;
42978;SDS011;28616;44.746;19.678;2023-06-26T06:24:15;14.82;;;7.57;;
42978;SDS011;28616;44.746;19.678;2023-06-26T06:26:42;10.45;;;6.68;;
42978;SDS011;28616;44.746;19.678;2023-06-26T06:29:08;9.27;;;6.43;;
42978;SDS011;28616;44.746;19.678;2023-06-26T06:31:34;9.35;;;6.22;;
42978;SDS011;28616;44.746;19.678;2023-06-26T06:34:00;10.50;;;5.97;;
42978;SDS011;28616;44.746;19.678;2023-06-26T06:36:27;10.90;;;5.43;;
42978;SDS011;28616;44.746;19.678;2023-06-26T06:38:53;10.32;;;6.38;;
42978;SDS011;28616;44.746;19.678;2023-06-26T06:41:19;14.68;;;6.30;;
42978;SDS011;28616;44.746;19.678;2023-06-26T06:43:46;11.13;;;6.45;;
42978;SDS011;28616;44.746;19.678;2023-06-26T06:46:12;12.65;;;6.47;;
42978;SDS011;28616;44.746;19.678;2023-06-26T06:48:38;11.13;;;5.80;;
42978;SDS011;28616;44.746;19.678;2023-06-26T06:51:04;13.35;;;6.22;;
42978;SDS011;28616;44.746;19.678;2023-06-26T06:53:31;13.05;;;6.03;;
42978;SDS011;28616;44.746;19.678;2023-06-26T08:28:37;7.63;;;3.78;;
42978;SDS011;28616;44.746;19.678;2023-06-26T08:31:03;8.45;;;4.10;;
42978;SDS011;28616;44.746;19.678;2023-06-26T08:33:29;8.52;;;3.30;;
42978;SDS011;28616;44.746;19.678;2023-06-26T08:35:55;7.82;;;3.58;;
42978;SDS011;28616;44.746;19.678;2023-06-26T08:38:21;4.72;;;3.20;;
42978;SDS011;28616;44.746;19.678;2023-06-26T08:42:38;6.30;;;3.08;;
42978;SDS011;28616;44.746;19.678;2023-06-26T08:45:04;6.20;;;3.38;;
42978;SDS011;28616;44.746;19.678;2023-06-26T08:47:30;6.13;;;3.20;;
42978;SDS011;28616;44.746;19.678;2023-06-26T08:52:37;7.07;;;2.92;;
42978;SDS011;28616;44.746;19.678;2023-06-26T08:55:06;7.43;;;3.65;;
42978;SDS011;28616;44.746;19.678;2023-06-26T08:57:34;4.35;;;2.97;;
42978;SDS011;28616;44.746;19.678;2023-06-26T09:00:00;4.57;;;2.90;;
42978;SDS011;28616;44.746;19.678;2023-06-26T09:02:26;4.75;;;3.13;;
42978;SDS011;28616;44.746;19.678;2023-06-26T09:08:23;4.07;;;2.70;;
42978;SDS011;28616;44.746;19.678;2023-06-26T09:10:49;6.50;;;3.08;;
42978;SDS011;28616;44.746;19.678;2023-06-26T09:13:15;8.57;;;3.17;;
42978;SDS011;28616;44.746;19.678;2023-06-26T09:15:42;4.88;;;2.63;;
42978;SDS011;28616;44.746;19.678;2023-06-26T09:18:08;4.55;;;2.83;;
42978;SDS011;28616;44.746;19.678;2023-06-26T09:20:35;6.80;;;2.88;;
42978;SDS011;28616;44.746;19.678;2023-06-26T09:23:01;4.10;;;2.90;;
42978;SDS011;28616;44.746;19.678;2023-06-26T09:25:28;7.72;;;3.00;;
42978;SDS011;28616;44.746;19.678;2023-06-26T09:27:55;4.85;;;2.78;;
42978;SDS011;28616;44.746;19.678;2023-06-26T09:30:21;3.97;;;2.50;;
42978;SDS011;28616;44.746;19.678;2023-06-26T09:32:48;4.25;;;2.75;;
42978;SDS011;28616;44.746;19.678;2023-06-26T09:37:45;4.63;;;3.25;;
42978;SDS011;28616;44.746;19.678;2023-06-26T09:40:11;6.35;;;2.90;;
42978;SDS011;28616;44.746;19.678;2023-06-26T09:42:37;4.18;;;2.63;;
42978;SDS011;28616;44.746;19.678;2023-06-26T09:45:03;5.20;;;2.95;;
42978;SDS011;28616;44.746;19.678;2023-06-26T09:47:30;6.10;;;2.60;;
42978;SDS011;28616;44.746;19.678;2023-06-26T09:49:59;5.38;;;2.72;;
42978;SDS011;28616;44.746;19.678;2023-06-26T09:52:26;5.45;;;2.45;;
42978;SDS011;28616;44.746;19.678;2023-06-26T09:55:08;4.05;;;2.63;;
42978;SDS011;28616;44.746;19.678;2023-06-26T09:57:34;4.82;;;2.60;;
42978;SDS011;28616;44.746;19.678;2023-06-26T10:00:04;4.78;;;2.78;;
42978;SDS011;28616;44.746;19.678;2023-06-26T10:02:33;4.47;;;2.88;;
42978;SDS011;28616;44.746;19.678;2023-06-26T10:04:59;4.43;;;2.75;;
42978;SDS011;28616;44.746;19.678;2023-06-26T10:07:25;6.43;;;2.60;;
42978;SDS011;28616;44.746;19.678;2023-06-26T10:09:52;3.50;;;2.70;;
42978;SDS011;28616;44.746;19.678;2023-06-26T10:12:21;4.13;;;2.90;;
42978;SDS011;28616;44.746;19.678;2023-06-26T10:14:50;4.22;;;2.60;;
42978;SDS011;28616;44.746;19.678;2023-06-26T10:17:18;5.05;;;2.50;;
42978;SDS011;28616;44.746;19.678;2023-06-26T10:19:48;8.98;;;2.85;;
42978;SDS011;28616;44.746;19.678;2023-06-26T10:22:17;5.55;;;2.70;;
42978;SDS011;28616;44.746;19.678;2023-06-26T10:24:43;5.90;;;2.83;;
42978;SDS011;28616;44.746;19.678;2023-06-26T10:29:37;4.63;;;2.72;;
42978;SDS011;28616;44.746;19.678;2023-06-26T10:32:03;4.20;;;2.67;;
42978;SDS011;28616;44.746;19.678;2023-06-26T10:34:30;5.18;;;2.70;;
42978;SDS011;28616;44.746;19.678;2023-06-26T10:37:00;6.47;;;3.38;;
42978;SDS011;28616;44.746;19.678;2023-06-26T10:39:27;5.22;;;2.53;;
42978;SDS011;28616;44.746;19.678;2023-06-26T10:41:57;6.18;;;3.22;;
42978;SDS011;28616;44.746;19.678;2023-06-26T10:44:41;4.72;;;2.58;;
42978;SDS011;28616;44.746;19.678;2023-06-26T10:47:08;4.35;;;2.67;;
42978;SDS011;28616;44.746;19.678;2023-06-26T10:49:36;7.55;;;3.10;;
42978;SDS011;28616;44.746;19.678;2023-06-26T10:52:04;4.97;;;2.75;;
42978;SDS011;28616;44.746;19.678;2023-06-26T10:54:33;6.97;;;3.22;;
42978;SDS011;28616;44.746;19.678;2023-06-26T10:56:59;3.78;;;2.70;;
42978;SDS011;28616;44.746;19.678;2023-06-26T10:59:27;6.13;;;2.33;;
42978;SDS011;28616;44.746;19.678;2023-06-26T11:01:54;3.90;;;2.58;;
42978;SDS011;28616;44.746;19.678;2023-06-26T11:05:06;3.90;;;2.33;;
42978;SDS011;28616;44.746;19.678;2023-06-26T11:07:14;6.40;;;2.42;;
42978;SDS011;28616;44.746;19.678;2023-06-26T11:15:22;4.20;;;2.88;;
42978;SDS011;28616;44.746;19.678;2023-06-26T11:17:48;6.60;;;3.17;;
42978;SDS011;28616;44.746;19.678;2023-06-26T11:20:15;4.18;;;3.08;;
42978;SDS011;28616;44.746;19.678;2023-06-26T11:22:43;3.83;;;2.50;;
42978;SDS011;28616;44.746;19.678;2023-06-26T11:25:09;5.40;;;2.88;;
42978;SDS011;28616;44.746;19.678;2023-06-26T11:27:42;6.13;;;2.50;;
42978;SDS011;28616;44.746;19.678;2023-06-26T11:30:09;5.95;;;3.22;;
42978;SDS011;28616;44.746;19.678;2023-06-26T11:32:36;3.53;;;2.47;;
42978;SDS011;28616;44.746;19.678;2023-06-26T11:35:03;8.02;;;2.67;;
42978;SDS011;28616;44.746;19.678;2023-06-26T11:37:30;4.72;;;2.90;;
42978;SDS011;28616;44.746;19.678;2023-06-26T11:39:56;3.72;;;2.40;;
42978;SDS011;28616;44.746;19.678;2023-06-26T11:42:23;6.25;;;3.15;;
42978;SDS011;28616;44.746;19.678;2023-06-26T11:44:50;5.50;;;2.85;;
42978;SDS011;28616;44.746;19.678;2023-06-26T11:47:18;4.35;;;2.88;;
42978;SDS011;28616;44.746;19.678;2023-06-26T11:49:45;4.35;;;2.70;;
42978;SDS011;28616;44.746;19.678;2023-06-26T11:52:11;4.32;;;2.78;;
42978;SDS011;28616;44.746;19.678;2023-06-26T11:54:38;5.88;;;2.80;;
42978;SDS011;28616;44.746;19.678;2023-06-26T11:57:04;3.38;;;2.65;;
42978;SDS011;28616;44.746;19.678;2023-06-26T11:59:34;4.43;;;2.90;;
42978;SDS011;28616;44.746;19.678;2023-06-26T12:02:01;5.70;;;2.70;;
42978;SDS011;28616;44.746;19.678;2023-06-26T12:04:30;5.18;;;3.40;;
42978;SDS011;28616;44.746;19.678;2023-06-26T12:06:56;4.20;;;2.83;;
42978;SDS011;28616;44.746;19.678;2023-06-26T12:09:23;3.83;;;2.75;;
42978;SDS011;28616;44.746;19.678;2023-06-26T12:11:52;7.30;;;2.72;;
42978;SDS011;28616;44.746;19.678;2023-06-26T12:14:22;9.48;;;3.05;;
42978;SDS011;28616;44.746;19.678;2023-06-26T12:16:48;5.43;;;3.22;;
42978;SDS011;28616;44.746;19.678;2023-06-26T12:19:14;5.35;;;2.97;;
42978;SDS011;28616;44.746;19.678;2023-06-26T12:24:12;8.13;;;2.83;;
42978;SDS011;28616;44.746;19.678;2023-06-26T12:26:40;3.45;;;2.53;;
42978;SDS011;28616;44.746;19.678;2023-06-26T12:31:34;6.20;;;2.50;;
42978;SDS011;28616;44.746;19.678;2023-06-26T12:34:01;3.70;;;2.50;;
42978;SDS011;28616;44.746;19.678;2023-06-26T12:36:27;6.03;;;3.08;;
42978;SDS011;28616;44.746;19.678;2023-06-26T12:38:53;5.25;;;2.70;;
42978;SDS011;28616;44.746;19.678;2023-06-26T12:41:20;5.90;;;2.60;;
42978;SDS011;28616;44.746;19.678;2023-06-26T12:43:49;4.15;;;2.53;;
42978;SDS011;28616;44.746;19.678;2023-06-26T12:46:15;4.03;;;3.00;;
42978;SDS011;28616;44.746;19.678;2023-06-26T12:48:42;5.32;;;2.78;;
42978;SDS011;28616;44.746;19.678;2023-06-26T12:51:15;5.28;;;3.35;;
42978;SDS011;28616;44.746;19.678;2023-06-26T12:53:41;3.88;;;2.53;;
42978;SDS011;28616;44.746;19.678;2023-06-26T12:56:10;3.80;;;2.38;;
42978;SDS011;28616;44.746;19.678;2023-06-26T12:58:37;5.88;;;3.00;;
42978;SDS011;28616;44.746;19.678;2023-06-26T13:01:05;3.78;;;2.67;;
42978;SDS011;28616;44.746;19.678;2023-06-26T13:03:32;4.38;;;2.92;;
42978;SDS011;28616;44.746;19.678;2023-06-26T13:05:58;3.83;;;2.72;;
42978;SDS011;28616;44.746;19.678;2023-06-26T13:08:25;4.85;;;3.03;;
42978;SDS011;28616;44.746;19.678;2023-06-26T13:10:51;5.45;;;3.10;;
42978;SDS011;28616;44.746;19.678;2023-06-26T13:13:17;3.58;;;2.50;;
42978;SDS011;28616;44.746;19.678;2023-06-26T13:15:43;7.80;;;2.90;;
42978;SDS011;28616;44.746;19.678;2023-06-26T13:18:09;4.85;;;2.40;;
42978;SDS011;28616;44.746;19.678;2023-06-26T13:20:35;6.13;;;3.00;;
42978;SDS011;28616;44.746;19.678;2023-06-26T13:23:01;3.65;;;2.70;;
42978;SDS011;28616;44.746;19.678;2023-06-26T13:25:28;8.45;;;2.70;;
42978;SDS011;28616;44.746;19.678;2023-06-26T13:27:54;4.47;;;3.03;;
42978;SDS011;28616;44.746;19.678;2023-06-26T13:30:21;5.65;;;2.63;;
42978;SDS011;28616;44.746;19.678;2023-06-26T13:32:47;5.50;;;2.22;;
42978;SDS011;28616;44.746;19.678;2023-06-26T13:35:13;3.70;;;2.50;;
42978;SDS011;28616;44.746;19.678;2023-06-26T13:37:40;3.92;;;2.42;;
42978;SDS011;28616;44.746;19.678;2023-06-26T13:40:06;3.58;;;2.45;;
42978;SDS011;28616;44.746;19.678;2023-06-26T13:42:32;3.90;;;2.65;;
42978;SDS011;28616;44.746;19.678;2023-06-26T13:45:00;6.13;;;2.47;;
42978;SDS011;28616;44.746;19.678;2023-06-26T13:47:26;3.80;;;2.28;;
42978;SDS011;28616;44.746;19.678;2023-06-26T13:49:52;4.65;;;2.50;;
42978;SDS011;28616;44.746;19.678;2023-06-26T13:52:18;3.33;;;2.22;;
42978;SDS011;28616;44.746;19.678;2023-06-26T13:54:44;5.05;;;2.70;;
42978;SDS011;28616;44.746;19.678;2023-06-26T13:57:10;4.80;;;2.83;;
42978;SDS011;28616;44.746;19.678;2023-06-26T13:59:37;4.20;;;2.33;;
42978;SDS011;28616;44.746;19.678;2023-06-26T14:02:04;7.90;;;2.55;;
42978;SDS011;28616;44.746;19.678;2023-06-26T14:04:31;6.13;;;2.60;;
42978;SDS011;28616;44.746;19.678;2023-06-26T14:06:57;5.10;;;2.95;;
42978;SDS011;28616;44.746;19.678;2023-06-26T14:09:23;4.22;;;2.72;;
42978;SDS011;28616;44.746;19.678;2023-06-26T14:11:50;5.55;;;2.65;;
42978;SDS011;28616;44.746;19.678;2023-06-26T14:14:16;3.92;;;2.55;;
42978;SDS011;28616;44.746;19.678;2023-06-26T14:16:42;4.05;;;2.38;;
42978;SDS011;28616;44.746;19.678;2023-06-26T14:19:09;3.55;;;2.45;;
42978;SDS011;28616;44.746;19.678;2023-06-26T14:21:40;7.97;;;2.20;;
42978;SDS011;28616;44.746;19.678;2023-06-26T14:24:06;8.88;;;2.60;;
42978;SDS011;28616;44.746;19.678;2023-06-26T14:26:33;3.47;;;2.30;;
42978;SDS011;28616;44.746;19.678;2023-06-26T14:28:59;3.75;;;2.10;;
42978;SDS011;28616;44.746;19.678;2023-06-26T14:31:25;4.28;;;2.70;;
42978;SDS011;28616;44.746;19.678;2023-06-26T14:33:52;3.83;;;2.50;;
42978;SDS011;28616;44.746;19.678;2023-06-26T14:36:18;4.30;;;2.50;;
42978;SDS011;28616;44.746;19.678;2023-06-26T14:38:44;4.95;;;2.42;;
42978;SDS011;28616;44.746;19.678;2023-06-26T14:41:10;3.67;;;2.35;;
42978;SDS011;28616;44.746;19.678;2023-06-26T14:43:37;3.85;;;2.13;;
42978;SDS011;28616;44.746;19.678;2023-06-26T14:46:03;3.17;;;2.20;;
42978;SDS011;28616;44.746;19.678;2023-06-26T14:48:29;4.18;;;2.38;;
42978;SDS011;28616;44.746;19.678;2023-06-26T14:50:55;5.78;;;2.20;;
42978;SDS011;28616;44.746;19.678;2023-06-26T14:53:21;2.70;;;2.00;;
42978;SDS011;28616;44.746;19.678;2023-06-26T14:55:47;4.60;;;2.72;;
42978;SDS011;28616;44.746;19.678;2023-06-26T14:58:13;4.22;;;2.50;;
42978;SDS011;28616;44.746;19.678;2023-06-26T15:00:39;5.93;;;2.20;;
42978;SDS011;28616;44.746;19.678;2023-06-26T15:03:06;5.18;;;2.40;;
42978;SDS011;28616;44.746;19.678;2023-06-26T15:05:32;6.07;;;2.25;;
42978;SDS011;28616;44.746;19.678;2023-06-26T15:07:58;4.05;;;2.20;;
42978;SDS011;28616;44.746;19.678;2023-06-26T15:10:24;6.07;;;2.45;;
42978;SDS011;28616;44.746;19.678;2023-06-26T15:12:51;2.55;;;1.70;;
42978;SDS011;28616;44.746;19.678;2023-06-26T15:15:18;7.93;;;2.40;;
42978;SDS011;28616;44.746;19.678;2023-06-26T15:17:44;3.17;;;2.30;;
42978;SDS011;28616;44.746;19.678;2023-06-26T15:20:10;3.92;;;2.10;;
42978;SDS011;28616;44.746;19.678;2023-06-26T15:22:36;3.65;;;2.15;;
42978;SDS011;28616;44.746;19.678;2023-06-26T15:25:04;4.32;;;2.25;;
42978;SDS011;28616;44.746;19.678;2023-06-26T15:27:30;5.15;;;2.30;;
42978;SDS011;28616;44.746;19.678;2023-06-26T15:29:56;2.90;;;1.77;;
42978;SDS011;28616;44.746;19.678;2023-06-26T15:32:22;3.47;;;2.10;;
42978;SDS011;28616;44.746;19.678;2023-06-26T15:34:48;7.97;;;2.35;;
42978;SDS011;28616;44.746;19.678;2023-06-26T15:37:14;6.05;;;2.42;;
42978;SDS011;28616;44.746;19.678;2023-06-26T15:39:41;5.72;;;2.55;;
42978;SDS011;28616;44.746;19.678;2023-06-26T15:42:07;6.40;;;2.33;;
42978;SDS011;28616;44.746;19.678;2023-06-26T15:44:34;6.13;;;3.00;;
42978;SDS011;28616;44.746;19.678;2023-06-26T15:47:00;4.97;;;2.88;;
42978;SDS011;28616;44.746;19.678;2023-06-26T15:49:26;4.85;;;3.08;;
42978;SDS011;28616;44.746;19.678;2023-06-26T15:51:53;4.45;;;2.70;;
42978;SDS011;28616;44.746;19.678;2023-06-26T15:54:19;8.52;;;2.92;;
42978;SDS011;28616;44.746;19.678;2023-06-26T15:56:45;4.97;;;3.00;;
42978;SDS011;28616;44.746;19.678;2023-06-26T15:59:11;5.07;;;3.38;;
42978;SDS011;28616;44.746;19.678;2023-06-26T16:01:40;4.70;;;3.05;;
42978;SDS011;28616;44.746;19.678;2023-06-26T16:04:06;3.72;;;3.03;;
42978;SDS011;28616;44.746;19.678;2023-06-26T16:06:32;5.15;;;3.33;;
42978;SDS011;28616;44.746;19.678;2023-06-26T16:08:58;5.32;;;3.60;;
42978;SDS011;28616;44.746;19.678;2023-06-26T16:11:25;7.90;;;3.40;;
42978;SDS011;28616;44.746;19.678;2023-06-26T16:13:51;6.78;;;3.67;;
42978;SDS011;28616;44.746;19.678;2023-06-26T16:16:18;6.15;;;3.88;;
42978;SDS011;28616;44.746;19.678;2023-06-26T16:18:44;5.45;;;3.60;;
42978;SDS011;28616;44.746;19.678;2023-06-26T16:21:10;8.23;;;3.78;;
42978;SDS011;28616;44.746;19.678;2023-06-26T16:23:36;7.32;;;3.85;;
42978;SDS011;28616;44.746;19.678;2023-06-26T16:26:03;10.65;;;3.47;;
42978;SDS011;28616;44.746;19.678;2023-06-26T16:28:29;8.27;;;3.45;;
42978;SDS011;28616;44.746;19.678;2023-06-26T16:30:55;6.53;;;3.90;;